createdAt,value
2018-02-20T00:01:43.932Z,85.36
2018-02-20T00:04:11.501Z,85.21
2018-02-20T00:06:39.097Z,85.68
2018-02-20T00:09:06.670Z,86.30
2018-02-20T00:11:34.279Z,86.62
2018-02-20T00:14:01.850Z,85.83
2018-02-20T00:16:30.319Z,85.83
2018-02-20T00:18:57.923Z,86.30
2018-02-20T00:21:25.486Z,86.72
2018-02-20T00:23:53.059Z,86.81
2018-02-20T00:26:20.618Z,86.12
2018-02-20T00:28:48.186Z,86.56
2018-02-20T00:31:15.758Z,86.91
2018-02-20T00:33:43.370Z,86.54
2018-02-20T00:36:11.830Z,86.76
2018-02-20T00:38:39.387Z,85.84
2018-02-20T00:41:06.948Z,86.02
2018-02-20T00:43:34.547Z,86.05
2018-02-20T00:46:02.152Z,86.80
2018-02-20T00:48:29.723Z,87.02
2018-02-20T00:50:57.322Z,87.15
2018-02-20T00:53:24.917Z,86.58
2018-02-20T00:55:52.536Z,87.61
2018-02-20T00:58:20.095Z,87.42
2018-02-20T01:00:47.656Z,88.08
2018-02-20T01:03:15.256Z,87.41
2018-02-20T01:05:42.855Z,86.93
2018-02-20T01:08:10.417Z,87.02
2018-02-20T01:10:38.012Z,86.34
2018-02-20T01:13:05.610Z,86.03
2018-02-20T01:15:33.165Z,86.44
2018-02-20T01:18:00.722Z,86.22
2018-02-20T01:20:28.330Z,84.85
2018-02-20T01:22:55.887Z,86.27
2018-02-20T01:25:23.446Z,85.80
2018-02-20T01:27:51.013Z,85.43
2018-02-20T01:30:18.576Z,85.55
2018-02-20T01:32:46.172Z,85.43
2018-02-20T01:35:13.746Z,85.51
2018-02-20T01:37:41.346Z,87.56
2018-02-20T01:40:08.908Z,86.59
2018-02-20T01:42:36.503Z,86.73
2018-02-20T01:45:04.071Z,86.55
2018-02-20T01:47:31.659Z,86.64
2018-02-20T01:49:59.221Z,86.92
2018-02-20T01:52:26.820Z,87.17
2018-02-20T01:54:54.387Z,87.13
2018-02-20T01:57:21.943Z,87.20
2018-02-20T01:59:49.508Z,86.51
2018-02-20T02:02:17.071Z,87.28
2018-02-20T02:04:44.632Z,87.11
2018-02-20T02:07:12.185Z,87.31
2018-02-20T02:09:39.748Z,86.64
2018-02-20T02:12:07.364Z,86.93
2018-02-20T02:14:34.923Z,86.89
2018-02-20T02:17:02.483Z,87.10
2018-02-20T02:19:30.045Z,87.19
2018-02-20T02:21:57.620Z,86.30
2018-02-20T02:24:25.178Z,87.39
2018-02-20T02:26:52.739Z,87.99
2018-02-20T02:29:20.298Z,87.12
2018-02-20T02:31:48.663Z,87.15
2018-02-20T02:34:17.008Z,88.17
2018-02-20T02:36:44.572Z,87.40
2018-02-20T02:39:12.134Z,88.57
2018-02-20T02:41:39.694Z,88.17
2018-02-20T02:44:07.256Z,87.87
2018-02-20T02:46:34.810Z,88.08
2018-02-20T02:49:02.371Z,87.23
2018-02-20T02:51:29.922Z,88.39
2018-02-20T02:53:57.475Z,88.25
2018-02-20T02:56:25.072Z,87.72
2018-02-20T02:58:53.452Z,88.40
2018-02-20T03:01:21.060Z,87.89
2018-02-20T03:03:48.627Z,87.56
2018-02-20T03:06:16.189Z,88.23
2018-02-20T03:08:43.751Z,87.77
2018-02-20T03:11:12.239Z,87.40
2018-02-20T03:13:39.793Z,88.00
2018-02-20T03:16:07.362Z,88.04
2018-02-20T03:18:34.922Z,88.17
2018-02-20T03:21:02.479Z,87.65
2018-02-20T03:23:30.067Z,87.89
2018-02-20T03:25:57.624Z,88.36
2018-02-20T03:28:26.000Z,87.87
2018-02-20T03:30:53.559Z,87.66
2018-02-20T03:33:21.122Z,88.65
2018-02-20T03:35:49.483Z,87.66
2018-02-20T03:38:17.042Z,88.07
2018-02-20T03:40:44.601Z,88.31
2018-02-20T03:43:12.872Z,88.98
2018-02-20T03:45:41.265Z,88.80
2018-02-20T03:48:09.623Z,88.12
2018-02-20T03:50:37.943Z,88.96
2018-02-20T03:53:06.298Z,88.17
2018-02-20T03:55:34.648Z,88.00
2018-02-20T03:58:03.015Z,88.28
2018-02-20T04:00:31.367Z,87.98
2018-02-20T04:02:59.708Z,88.57
2018-02-20T04:05:28.086Z,88.35
2018-02-20T04:07:56.441Z,88.99
2018-02-20T04:10:24.782Z,88.00
2018-02-20T04:12:53.087Z,88.95
2018-02-20T04:15:21.403Z,88.34
2018-02-20T04:17:49.727Z,87.91
2018-02-20T04:20:18.170Z,87.78
2018-02-20T04:22:46.558Z,87.86
2018-02-20T04:25:14.952Z,88.44
2018-02-20T04:27:42.520Z,88.57
2018-02-20T04:30:10.077Z,88.32
2018-02-20T04:32:38.434Z,88.35
2018-02-20T04:35:05.996Z,88.41
2018-02-20T04:37:33.547Z,88.37
2018-02-20T04:40:02.552Z,89.05
2018-02-20T04:42:30.109Z,88.65
2018-02-20T04:44:57.708Z,89.31
2018-02-20T04:47:25.267Z,88.82
2018-02-20T04:49:53.787Z,88.53
2018-02-20T04:52:21.343Z,88.19
2018-02-20T04:54:49.754Z,88.49
2018-02-20T04:57:17.311Z,88.33
2018-02-20T04:59:44.872Z,88.91
2018-02-20T05:02:12.425Z,88.63
2018-02-20T05:04:40.855Z,88.86
2018-02-20T05:07:08.487Z,88.86
2018-02-20T05:09:36.440Z,88.45
2018-02-20T05:12:04.011Z,88.29
2018-02-20T05:14:32.481Z,87.69
2018-02-20T05:17:00.048Z,88.17
2018-02-20T05:19:27.606Z,87.25
2018-02-20T05:21:55.170Z,88.64
2018-02-20T05:24:23.565Z,88.23
2018-02-20T05:26:51.162Z,88.16
2018-02-20T05:29:18.727Z,88.30
2018-02-20T05:31:46.284Z,88.65
2018-02-20T05:34:13.851Z,87.84
2018-02-20T05:36:42.302Z,88.25
2018-02-20T05:39:09.907Z,87.87
2018-02-20T05:41:38.187Z,87.85
2018-02-20T05:44:05.744Z,88.36
2018-02-20T05:46:33.303Z,88.48
2018-02-20T05:49:00.866Z,88.09
2018-02-20T05:51:28.470Z,88.31
2018-02-20T05:53:56.012Z,88.92
2018-02-20T05:56:23.682Z,88.18
2018-02-20T05:58:51.240Z,88.45
2018-02-20T06:01:19.574Z,88.24
2018-02-20T06:03:47.220Z,88.57
2018-02-20T06:06:14.865Z,89.32
2018-02-20T06:08:42.505Z,88.74
2018-02-20T06:11:10.091Z,88.84
2018-02-20T06:13:38.378Z,89.05
2018-02-20T06:16:05.983Z,88.55
2018-02-20T06:18:33.546Z,89.03
2018-02-20T06:21:01.155Z,89.72
2018-02-20T06:23:28.742Z,88.85
2018-02-20T06:25:57.206Z,89.79
2018-02-20T06:28:24.762Z,89.98
2018-02-20T06:30:52.352Z,89.77
2018-02-20T06:33:19.912Z,89.81
2018-02-20T06:35:47.471Z,90.00
2018-02-20T06:38:15.833Z,89.76
2018-02-20T06:40:43.434Z,90.45
2018-02-20T06:43:10.998Z,89.95
2018-02-20T06:45:38.591Z,89.42
2018-02-20T06:48:06.146Z,89.74
2018-02-20T06:50:33.706Z,89.53
2018-02-20T06:53:01.267Z,90.16
2018-02-20T06:55:28.862Z,89.89
2018-02-20T06:57:56.506Z,89.66
2018-02-20T07:00:24.099Z,89.74
2018-02-20T07:02:51.678Z,88.80
2018-02-20T07:05:19.278Z,89.38
2018-02-20T07:07:47.744Z,89.27
2018-02-20T07:10:15.338Z,89.47
2018-02-20T07:12:43.002Z,89.33
2018-02-20T07:15:11.396Z,88.55
2018-02-20T07:17:39.794Z,88.47
2018-02-20T07:20:08.233Z,89.40
2018-02-20T07:22:35.803Z,88.87
2018-02-20T07:25:03.371Z,89.54
2018-02-20T07:27:30.926Z,88.47
2018-02-20T07:29:59.175Z,88.78
2018-02-20T07:32:27.471Z,88.33
2018-02-20T07:34:55.915Z,87.91
2018-02-20T07:37:23.507Z,87.87
2018-02-20T07:39:51.106Z,87.54
2018-02-20T07:42:18.747Z,87.76
2018-02-20T07:44:46.338Z,87.38
2018-02-20T07:47:14.678Z,86.97
2018-02-20T07:49:43.031Z,86.96
2018-02-20T07:52:10.591Z,86.65
2018-02-20T07:54:38.187Z,86.34
2018-02-20T07:57:06.568Z,86.05
2018-02-20T07:59:34.137Z,85.83
2018-02-20T08:02:02.526Z,85.81
2018-02-20T08:04:30.990Z,84.79
2018-02-20T08:06:59.338Z,85.88
2018-02-20T08:09:27.697Z,86.07
2018-02-20T08:11:55.258Z,85.27
2018-02-20T08:14:22.823Z,85.75
2018-02-20T08:16:51.321Z,84.44
2018-02-20T08:19:19.697Z,84.19
2018-02-20T08:21:47.755Z,84.44
2018-02-20T08:24:15.315Z,83.69
2018-02-20T08:26:42.908Z,82.93
2018-02-20T08:29:10.516Z,83.46
2018-02-20T08:31:38.910Z,83.00
2018-02-20T08:34:07.409Z,83.41
2018-02-20T08:36:35.795Z,83.27
2018-02-20T08:39:03.396Z,83.29
2018-02-20T08:41:30.950Z,82.93
2018-02-20T08:43:58.580Z,82.27
2018-02-20T08:46:27.083Z,81.15
2018-02-20T08:48:55.479Z,80.73
2018-02-20T08:51:23.033Z,79.80
2018-02-20T08:53:51.442Z,81.07
2018-02-20T08:56:19.034Z,79.48
2018-02-20T08:58:46.587Z,79.29
2018-02-20T09:01:14.179Z,78.36
2018-02-20T09:03:41.758Z,77.48
2018-02-20T09:06:09.326Z,77.83
2018-02-20T09:08:36.891Z,76.05
2018-02-20T09:11:04.447Z,75.64
2018-02-20T09:13:32.009Z,77.32
2018-02-20T09:15:59.563Z,76.33
2018-02-20T09:18:27.119Z,76.59
2018-02-20T09:20:54.675Z,76.75
2018-02-20T09:23:22.539Z,74.07
2018-02-20T09:25:50.099Z,74.54
2018-02-20T09:28:17.652Z,73.68
2018-02-20T09:30:45.205Z,75.36
2018-02-20T09:33:12.810Z,74.97
2018-02-20T09:35:41.307Z,74.02
2018-02-20T09:38:08.910Z,74.01
2018-02-20T09:40:36.456Z,74.32
2018-02-20T09:43:04.006Z,72.93
2018-02-20T09:45:31.558Z,72.28
2018-02-20T09:47:59.110Z,71.88
2018-02-20T09:50:26.704Z,72.22
2018-02-20T09:52:54.246Z,70.87
2018-02-20T09:55:22.763Z,72.73
2018-02-20T09:57:51.131Z,71.75
2018-02-20T10:00:18.717Z,70.67
2018-02-20T10:02:46.262Z,71.37
2018-02-20T10:05:14.607Z,69.64
2018-02-20T10:07:42.157Z,68.51
2018-02-20T10:10:09.708Z,69.16
2018-02-20T10:12:37.294Z,70.31
2018-02-20T10:15:04.851Z,69.43
2018-02-20T10:17:33.298Z,68.79
2018-02-20T10:20:02.294Z,70.29
2018-02-20T10:22:29.919Z,68.39
2018-02-20T10:24:57.505Z,68.43
2018-02-20T10:27:25.054Z,69.57
2018-02-20T10:29:52.645Z,68.92
2018-02-20T10:32:20.190Z,69.02
2018-02-20T10:34:48.554Z,69.42
2018-02-20T10:37:16.102Z,67.38
2018-02-20T10:42:16.616Z,65.64
2018-02-20T10:44:44.198Z,65.96
2018-02-20T10:47:12.481Z,65.52
2018-02-20T10:49:40.072Z,64.72
2018-02-20T10:52:08.473Z,65.61
2018-02-20T10:54:37.097Z,65.30
2018-02-20T10:57:05.482Z,64.93
2018-02-20T10:59:33.838Z,65.70
2018-02-20T11:02:02.198Z,63.44
2018-02-20T11:04:30.543Z,64.35
2018-02-20T11:06:58.162Z,63.25
2018-02-20T11:09:26.422Z,61.17
2018-02-20T11:11:54.002Z,61.85
2018-02-20T11:14:22.485Z,62.66
2018-02-20T11:16:51.896Z,60.66
2018-02-20T11:19:18.366Z,62.33
2018-02-20T11:21:46.634Z,61.14
2018-02-20T11:24:14.246Z,60.22
2018-02-20T11:26:42.729Z,60.76
2018-02-20T11:29:10.337Z,60.76
2018-02-20T11:31:37.916Z,57.58
2018-02-20T11:34:05.534Z,60.93
2018-02-20T11:36:33.898Z,58.64
2018-02-20T11:39:01.474Z,59.83
2018-02-20T11:41:29.753Z,58.94
2018-02-20T11:43:57.333Z,59.08
2018-02-20T11:46:25.754Z,58.74
2018-02-20T11:48:53.362Z,57.78
2018-02-20T11:51:21.789Z,57.80
2018-02-20T11:53:49.371Z,58.11
2018-02-20T11:56:17.841Z,57.81
2018-02-20T11:58:46.243Z,58.07
2018-02-20T12:01:14.643Z,58.94
2018-02-20T12:03:43.014Z,58.00
2018-02-20T12:06:11.386Z,56.86
2018-02-20T12:08:39.775Z,57.04
2018-02-20T12:11:08.334Z,57.38
2018-02-20T12:13:36.870Z,56.45
2018-02-20T12:16:04.448Z,55.13
2018-02-20T12:18:32.874Z,56.89
2018-02-20T12:21:00.450Z,56.58
2018-02-20T12:23:28.928Z,56.21
2018-02-20T12:25:56.497Z,53.72
2018-02-20T12:28:24.071Z,54.45
2018-02-20T12:30:51.646Z,53.85
2018-02-20T12:33:19.221Z,55.62
2018-02-20T12:35:46.805Z,52.98
2018-02-20T12:38:14.382Z,53.45
2018-02-20T12:40:41.954Z,53.30
2018-02-20T12:43:09.532Z,54.32
2018-02-20T12:45:37.110Z,55.27
2018-02-20T12:48:04.681Z,56.02
2018-02-20T12:50:32.254Z,55.36
2018-02-20T12:52:59.838Z,54.93
2018-02-20T12:55:27.417Z,56.07
2018-02-20T12:57:55.040Z,56.73
2018-02-20T13:00:22.620Z,55.63
2018-02-20T13:02:50.190Z,56.38
2018-02-20T13:05:17.766Z,55.78
2018-02-20T13:07:45.347Z,55.42
2018-02-20T13:10:12.926Z,57.58
2018-02-20T13:12:40.503Z,57.24
2018-02-20T13:15:08.993Z,57.58
2018-02-20T13:17:36.649Z,57.40
2018-02-20T13:20:04.272Z,55.99
2018-02-20T13:22:31.845Z,54.78
2018-02-20T13:25:00.250Z,56.13
2018-02-20T13:27:27.826Z,56.37
2018-02-20T13:29:55.435Z,56.69
2018-02-20T13:32:23.948Z,55.11
2018-02-20T13:34:51.568Z,55.42
2018-02-20T13:37:19.928Z,55.43
2018-02-20T13:39:47.504Z,56.01
2018-02-20T13:42:15.882Z,53.20
2018-02-20T13:44:43.463Z,55.15
2018-02-20T13:47:11.746Z,55.29
2018-02-20T13:49:40.371Z,54.17
2018-02-20T13:52:08.180Z,55.49
2018-02-20T13:54:35.754Z,55.77
2018-02-20T13:57:03.366Z,52.93
2018-02-20T13:59:30.947Z,54.43
2018-02-20T14:01:58.526Z,53.58
2018-02-20T14:04:26.110Z,53.41
2018-02-20T14:06:53.683Z,53.89
2018-02-20T14:09:21.265Z,54.17
2018-02-20T14:11:48.848Z,54.44
2018-02-20T14:14:16.425Z,53.04
2018-02-20T14:16:44.908Z,52.86
2018-02-20T14:19:12.992Z,53.79
2018-02-20T14:21:40.634Z,51.69
2018-02-20T14:24:08.210Z,52.69
2018-02-20T14:26:35.886Z,52.79
2018-02-20T14:29:04.365Z,52.51
2018-02-20T14:31:32.830Z,54.02
2018-02-20T14:34:00.511Z,54.46
2018-02-20T14:36:28.924Z,53.76
2018-02-20T14:38:57.211Z,53.62
2018-02-20T14:41:25.598Z,54.68
2018-02-20T14:43:54.006Z,53.81
2018-02-20T14:46:22.383Z,54.89
2018-02-20T14:48:50.022Z,54.47
2018-02-20T14:51:18.538Z,55.64
2018-02-20T14:53:47.139Z,55.44
2018-02-20T14:56:15.771Z,55.99
2018-02-20T14:58:45.201Z,55.46
2018-02-20T15:01:13.648Z,55.88
2018-02-20T15:03:42.147Z,57.20
2018-02-20T15:06:10.514Z,57.68
2018-02-20T15:08:38.140Z,55.80
2018-02-20T15:11:06.629Z,56.75
2018-02-20T15:13:34.947Z,57.48
2018-02-20T15:16:03.439Z,57.45
2018-02-20T15:18:31.801Z,56.10
2018-02-20T15:21:00.318Z,57.65
2018-02-20T15:23:28.622Z,57.61
2018-02-20T15:25:56.264Z,56.88
2018-02-20T15:28:24.827Z,57.55
2018-02-20T15:30:53.138Z,58.08
2018-02-20T15:33:21.717Z,57.67
2018-02-20T15:35:49.660Z,57.72
2018-02-20T15:38:18.219Z,58.89
2018-02-20T15:40:46.587Z,58.29
2018-02-20T15:43:14.216Z,56.95
2018-02-20T15:45:41.846Z,57.13
2018-02-20T15:48:10.342Z,57.93
2018-02-20T15:50:37.961Z,58.16
2018-02-20T15:53:06.172Z,57.19
2018-02-20T15:55:33.810Z,56.95
2018-02-20T15:58:01.414Z,58.69
2018-02-20T16:00:29.009Z,59.41
2018-02-20T16:02:56.711Z,58.34
2018-02-20T16:05:24.307Z,59.47
2018-02-20T16:07:51.951Z,60.20
2018-02-20T16:10:20.487Z,60.18
2018-02-20T16:12:48.071Z,61.21
2018-02-20T16:15:15.664Z,61.04
2018-02-20T16:17:43.276Z,61.15
2018-02-20T16:20:10.862Z,61.58
2018-02-20T16:22:38.549Z,62.18
2018-02-20T16:25:06.128Z,61.64
2018-02-20T16:27:33.717Z,63.90
2018-02-20T16:30:01.306Z,62.78
2018-02-20T16:32:28.934Z,63.95
2018-02-20T16:34:56.562Z,64.31
2018-02-20T16:37:24.156Z,64.29
2018-02-20T16:39:51.738Z,63.57
2018-02-20T16:42:19.501Z,64.13
2018-02-20T16:44:47.078Z,65.54
2018-02-20T16:47:14.661Z,64.61
2018-02-20T16:49:43.153Z,66.40
2018-02-20T16:52:11.498Z,64.94
2018-02-20T16:54:39.117Z,66.37
2018-02-20T16:57:06.706Z,65.53
2018-02-20T16:59:34.337Z,66.91
2018-02-20T17:02:01.957Z,66.27
2018-02-20T17:04:29.593Z,66.62
2018-02-20T17:06:57.184Z,67.87
2018-02-20T17:09:24.801Z,68.56
2018-02-20T17:11:52.432Z,68.09
2018-02-20T17:14:20.069Z,68.22
2018-02-20T17:16:47.689Z,68.30
2018-02-20T17:19:15.414Z,67.92
2018-02-20T17:21:43.128Z,67.92
2018-02-20T17:24:10.691Z,69.40
2018-02-20T17:26:38.275Z,67.90
2018-02-20T17:29:05.855Z,68.35
2018-02-20T17:31:34.192Z,69.63
2018-02-20T17:34:01.819Z,68.03
2018-02-20T17:36:30.659Z,69.20
2018-02-20T17:38:59.474Z,69.68
2018-02-20T17:41:29.531Z,68.60
2018-02-20T17:43:58.615Z,70.11
2018-02-20T17:46:26.250Z,70.52
2018-02-20T17:49:03.662Z,71.38
2018-02-20T17:51:31.350Z,71.17
2018-02-20T17:53:59.853Z,71.12
2018-02-20T17:56:27.574Z,71.64
2018-02-20T17:58:55.224Z,71.64
2018-02-20T18:01:36.529Z,72.66
2018-02-20T18:04:14.941Z,71.67
2018-02-20T18:07:05.721Z,71.87
2018-02-20T18:09:35.966Z,72.43
2018-02-20T18:12:03.939Z,72.43
2018-02-20T18:14:32.129Z,71.81
2018-02-20T18:17:03.989Z,73.39
2018-02-20T18:19:32.474Z,73.08
2018-02-20T18:22:00.690Z,73.19
2018-02-20T18:24:28.591Z,73.47
2018-02-20T18:26:58.723Z,73.77
2018-02-20T18:29:28.340Z,74.07
2018-02-20T18:32:01.624Z,74.16
2018-02-20T18:34:29.402Z,74.85
2018-02-20T18:36:57.773Z,76.00
2018-02-20T18:39:25.640Z,75.51
2018-02-20T18:42:07.829Z,75.46
2018-02-20T18:44:37.158Z,74.21
2018-02-20T18:53:20.632Z,75.22
2018-02-20T19:03:39.279Z,76.46
2018-02-20T19:10:14.808Z,76.42
2018-02-20T19:19:08.671Z,75.98
2018-02-20T19:24:40.910Z,76.91
2018-02-20T19:27:08.528Z,77.07
2018-02-20T19:29:36.451Z,77.54
2018-02-20T19:32:04.265Z,77.90
2018-02-20T19:34:31.878Z,78.73
2018-02-20T19:36:59.467Z,78.22
2018-02-20T19:39:27.127Z,79.65
2018-02-20T19:41:55.661Z,79.01
2018-02-20T19:44:24.039Z,78.91
2018-02-20T19:46:52.596Z,79.05
2018-02-20T19:49:23.448Z,79.36
2018-02-20T19:51:59.224Z,79.32
2018-02-20T19:54:26.909Z,78.61
2018-02-20T19:56:54.504Z,79.64
2018-02-20T19:59:22.096Z,79.61
2018-02-20T20:01:49.691Z,79.00
2018-02-20T20:04:17.287Z,79.85
2018-02-20T20:06:45.468Z,79.30
2018-02-20T20:09:13.144Z,79.82
2018-02-20T20:11:40.735Z,79.98
2018-02-20T20:14:08.355Z,80.32
2018-02-20T20:16:35.984Z,80.33
2018-02-20T20:19:03.649Z,80.65
2018-02-20T20:21:31.321Z,80.36
2018-02-20T20:23:58.889Z,80.76
2018-02-20T20:26:26.536Z,81.24
2018-02-20T20:28:54.119Z,81.37
2018-02-20T20:31:21.765Z,81.53
2018-02-20T20:33:49.394Z,81.20
2018-02-20T20:36:16.986Z,82.17
2018-02-20T20:38:44.610Z,81.28
2018-02-20T20:41:12.198Z,81.43
2018-02-20T20:43:39.810Z,82.07
2018-02-20T20:46:07.385Z,81.97
2018-02-20T20:48:35.750Z,82.53
2018-02-20T20:51:03.338Z,81.97
2018-02-20T20:53:31.799Z,81.79
2018-02-20T20:56:00.452Z,81.65
2018-02-20T20:58:28.092Z,81.57
2018-02-20T21:00:55.814Z,81.25
2018-02-20T21:03:23.438Z,80.84
2018-02-20T21:05:51.894Z,81.04
2018-02-20T21:08:20.485Z,80.60
2018-02-20T21:10:48.099Z,81.14
2018-02-20T21:13:16.428Z,81.04
2018-02-20T21:15:44.018Z,80.77
2018-02-20T21:18:12.470Z,80.88
2018-02-20T21:20:40.830Z,80.61
2018-02-20T21:23:09.395Z,80.58
2018-02-20T21:25:36.986Z,80.68
2018-02-20T21:28:04.578Z,80.34
2018-02-20T21:30:36.479Z,81.12
2018-02-20T21:33:06.548Z,80.26
2018-02-20T21:35:34.577Z,79.99
2018-02-20T21:38:03.894Z,80.54
2018-02-20T21:40:33.798Z,81.14
2018-02-20T21:43:01.459Z,80.52
2018-02-20T21:45:29.529Z,81.02
2018-02-20T21:47:57.267Z,81.57
2018-02-20T21:50:25.615Z,80.87
2018-02-20T21:52:53.311Z,79.72
2018-02-20T21:55:21.716Z,80.30
2018-02-20T21:57:49.347Z,79.56
2018-02-20T22:00:18.101Z,79.36
2018-02-20T22:02:45.727Z,78.87
2018-02-20T22:05:13.307Z,78.82
2018-02-20T22:07:41.484Z,78.94
2018-02-20T22:10:10.373Z,78.94
2018-02-20T22:12:38.728Z,78.29
2018-02-20T22:15:06.367Z,78.50
2018-02-20T22:17:36.412Z,78.27
2018-02-20T22:20:04.856Z,77.79
2018-02-20T22:22:33.540Z,78.99
2018-02-20T22:25:01.750Z,78.42
2018-02-20T22:27:30.128Z,77.75
2018-02-20T22:29:57.816Z,77.57
2018-02-20T22:32:25.419Z,77.17
2018-02-20T22:34:53.139Z,77.96
2018-02-20T22:37:20.884Z,77.02
2018-02-20T22:39:48.989Z,78.15
2018-02-20T22:42:16.626Z,78.13
2018-02-20T22:44:44.216Z,77.58
2018-02-20T22:47:12.102Z,77.47
2018-02-20T22:49:39.934Z,78.57
2018-02-20T22:52:07.604Z,78.18
2018-02-20T22:54:35.191Z,77.49
2018-02-20T22:57:02.925Z,77.76
2018-02-20T22:59:30.550Z,77.64
2018-02-20T23:01:58.171Z,78.29
2018-02-20T23:04:25.809Z,79.07
2018-02-20T23:06:53.452Z,78.10
2018-02-20T23:09:21.035Z,78.38
2018-02-20T23:11:48.736Z,77.65
2018-02-20T23:14:16.326Z,78.43
2018-02-20T23:16:43.909Z,77.25
2018-02-20T23:19:11.499Z,77.81
2018-02-20T23:21:39.078Z,78.12
2018-02-20T23:24:06.670Z,77.33
2018-02-20T23:26:34.256Z,77.69
2018-02-20T23:29:01.875Z,77.66
2018-02-20T23:31:30.397Z,77.75
2018-02-20T23:33:58.788Z,77.68
2018-02-20T23:36:26.372Z,78.08
2018-02-20T23:38:55.178Z,77.66
2018-02-20T23:41:23.505Z,77.71
2018-02-20T23:43:51.909Z,77.69
2018-02-20T23:46:19.497Z,77.27
2018-02-20T23:48:47.086Z,76.74
2018-02-20T23:51:21.242Z,77.52
2018-02-20T23:53:48.833Z,77.94
2018-02-20T23:56:16.464Z,77.39
2018-02-20T23:58:44.949Z,77.13
